sensor_id;sensor_type;location;lat;lon;timestamp;P1;durP1;ratioP1;P2;durP2;ratioP2
23230;SDS011;11784;49.818;8.632;2022-12-18T00:01:19;8.55;;;4.20;;
23230;SDS011;11784;49.818;8.632;2022-12-18T00:03:47;6.45;;;3.33;;
23230;SDS011;11784;49.818;8.632;2022-12-18T00:06:13;9.82;;;5.28;;
23230;SDS011;11784;49.818;8.632;2022-12-18T00:08:41;5.13;;;3.25;;
23230;SDS011;11784;49.818;8.632;2022-12-18T00:11:08;8.98;;;4.50;;
23230;SDS011;11784;49.818;8.632;2022-12-18T00:13:37;8.98;;;3.95;;
23230;SDS011;11784;49.818;8.632;2022-12-18T00:16:03;7.50;;;4.18;;
23230;SDS011;11784;49.818;8.632;2022-12-18T00:18:30;11.45;;;3.63;;
23230;SDS011;11784;49.818;8.632;2022-12-18T00:21:00;6.00;;;3.22;;
23230;SDS011;11784;49.818;8.632;2022-12-18T00:25:53;4.95;;;2.30;;
23230;SDS011;11784;49.818;8.632;2022-12-18T00:28:19;2.42;;;2.10;;
23230;SDS011;11784;49.818;8.632;2022-12-18T00:30:44;7.43;;;3.30;;
23230;SDS011;11784;49.818;8.632;2022-12-18T00:33:10;11.35;;;5.22;;
23230;SDS011;11784;49.818;8.632;2022-12-18T00:35:35;10.07;;;5.43;;
23230;SDS011;11784;49.818;8.632;2022-12-18T00:38:01;11.60;;;3.70;;
23230;SDS011;11784;49.818;8.632;2022-12-18T00:40:26;11.43;;;3.88;;
23230;SDS011;11784;49.818;8.632;2022-12-18T00:42:52;5.88;;;3.35;;
23230;SDS011;11784;49.818;8.632;2022-12-18T00:45:21;12.02;;;6.07;;
23230;SDS011;11784;49.818;8.632;2022-12-18T00:47:55;9.50;;;4.78;;
23230;SDS011;11784;49.818;8.632;2022-12-18T00:50:22;12.68;;;5.38;;
23230;SDS011;11784;49.818;8.632;2022-12-18T00:52:49;6.90;;;4.35;;
23230;SDS011;11784;49.818;8.632;2022-12-18T00:55:15;8.93;;;4.20;;
23230;SDS011;11784;49.818;8.632;2022-12-18T00:57:42;7.63;;;4.57;;
23230;SDS011;11784;49.818;8.632;2022-12-18T01:00:08;10.45;;;5.28;;
23230;SDS011;11784;49.818;8.632;2022-12-18T01:02:36;6.30;;;3.25;;
23230;SDS011;11784;49.818;8.632;2022-12-18T01:05:02;11.82;;;4.47;;
23230;SDS011;11784;49.818;8.632;2022-12-18T01:07:29;8.30;;;5.53;;
23230;SDS011;11784;49.818;8.632;2022-12-18T01:09:55;12.60;;;4.13;;
23230;SDS011;11784;49.818;8.632;2022-12-18T01:12:20;9.30;;;4.20;;
23230;SDS011;11784;49.818;8.632;2022-12-18T01:14:46;11.25;;;4.72;;
23230;SDS011;11784;49.818;8.632;2022-12-18T01:17:11;6.22;;;4.32;;
23230;SDS011;11784;49.818;8.632;2022-12-18T01:19:37;19.70;;;5.13;;
23230;SDS011;11784;49.818;8.632;2022-12-18T01:22:02;8.95;;;4.55;;
23230;SDS011;11784;49.818;8.632;2022-12-18T01:24:28;13.18;;;5.13;;
23230;SDS011;11784;49.818;8.632;2022-12-18T01:26:53;8.57;;;4.45;;
23230;SDS011;11784;49.818;8.632;2022-12-18T01:29:19;8.70;;;3.95;;
23230;SDS011;11784;49.818;8.632;2022-12-18T01:31:45;5.45;;;3.67;;
23230;SDS011;11784;49.818;8.632;2022-12-18T01:34:10;5.10;;;3.92;;
23230;SDS011;11784;49.818;8.632;2022-12-18T01:36:37;10.00;;;4.95;;
23230;SDS011;11784;49.818;8.632;2022-12-18T01:39:07;5.95;;;3.45;;
23230;SDS011;11784;49.818;8.632;2022-12-18T01:41:35;5.35;;;3.58;;
23230;SDS011;11784;49.818;8.632;2022-12-18T01:47:38;7.38;;;4.00;;
23230;SDS011;11784;49.818;8.632;2022-12-18T01:52:51;5.25;;;3.22;;
23230;SDS011;11784;49.818;8.632;2022-12-18T01:55:47;14.15;;;4.68;;
23230;SDS011;11784;49.818;8.632;2022-12-18T01:58:15;8.80;;;3.80;;
23230;SDS011;11784;49.818;8.632;2022-12-18T02:00:43;11.07;;;4.18;;
23230;SDS011;11784;49.818;8.632;2022-12-18T02:03:09;8.55;;;3.45;;
23230;SDS011;11784;49.818;8.632;2022-12-18T02:05:44;5.20;;;3.38;;
23230;SDS011;11784;49.818;8.632;2022-12-18T02:08:36;8.68;;;4.10;;
23230;SDS011;11784;49.818;8.632;2022-12-18T02:11:18;8.48;;;4.55;;
23230;SDS011;11784;49.818;8.632;2022-12-18T02:14:04;4.07;;;3.35;;
23230;SDS011;11784;49.818;8.632;2022-12-18T02:19:20;6.32;;;3.63;;
23230;SDS011;11784;49.818;8.632;2022-12-18T02:22:00;8.38;;;3.97;;
23230;SDS011;11784;49.818;8.632;2022-12-18T02:27:47;4.68;;;3.63;;
23230;SDS011;11784;49.818;8.632;2022-12-18T02:30:15;10.20;;;3.42;;
23230;SDS011;11784;49.818;8.632;2022-12-18T02:32:47;4.43;;;3.33;;
23230;SDS011;11784;49.818;8.632;2022-12-18T02:35:23;4.35;;;3.47;;
23230;SDS011;11784;49.818;8.632;2022-12-18T02:37:53;7.63;;;4.20;;
23230;SDS011;11784;49.818;8.632;2022-12-18T02:40:20;8.45;;;3.42;;
23230;SDS011;11784;49.818;8.632;2022-12-18T02:42:48;8.57;;;3.45;;
23230;SDS011;11784;49.818;8.632;2022-12-18T02:45:14;15.00;;;5.45;;
23230;SDS011;11784;49.818;8.632;2022-12-18T02:47:40;12.00;;;4.93;;
23230;SDS011;11784;49.818;8.632;2022-12-18T02:53:36;8.38;;;5.28;;
23230;SDS011;11784;49.818;8.632;2022-12-18T02:56:11;7.55;;;2.25;;
23230;SDS011;11784;49.818;8.632;2022-12-18T02:59:04;3.40;;;2.42;;
23230;SDS011;11784;49.818;8.632;2022-12-18T03:04:26;4.47;;;3.58;;
23230;SDS011;11784;49.818;8.632;2022-12-18T03:07:15;3.22;;;2.45;;
23230;SDS011;11784;49.818;8.632;2022-12-18T03:09:50;5.40;;;3.45;;
23230;SDS011;11784;49.818;8.632;2022-12-18T03:12:21;7.53;;;3.78;;
23230;SDS011;11784;49.818;8.632;2022-12-18T03:15:09;6.07;;;3.13;;
23230;SDS011;11784;49.818;8.632;2022-12-18T03:17:40;6.67;;;3.87;;
23230;SDS011;11784;49.818;8.632;2022-12-18T03:20:13;5.43;;;3.63;;
23230;SDS011;11784;49.818;8.632;2022-12-18T03:22:42;8.02;;;4.60;;
23230;SDS011;11784;49.818;8.632;2022-12-18T03:25:11;4.07;;;2.88;;
23230;SDS011;11784;49.818;8.632;2022-12-18T03:27:40;8.95;;;3.67;;
23230;SDS011;11784;49.818;8.632;2022-12-18T03:30:10;8.05;;;4.53;;
23230;SDS011;11784;49.818;8.632;2022-12-18T03:35:19;5.65;;;2.42;;
23230;SDS011;11784;49.818;8.632;2022-12-18T03:37:48;11.57;;;4.93;;
23230;SDS011;11784;49.818;8.632;2022-12-18T03:40:14;10.65;;;3.78;;
23230;SDS011;11784;49.818;8.632;2022-12-18T03:45:31;5.28;;;2.85;;
23230;SDS011;11784;49.818;8.632;2022-12-18T03:48:03;11.23;;;4.43;;
23230;SDS011;11784;49.818;8.632;2022-12-18T03:50:49;5.88;;;3.88;;
23230;SDS011;11784;49.818;8.632;2022-12-18T03:53:27;7.88;;;4.53;;
23230;SDS011;11784;49.818;8.632;2022-12-18T03:55:54;3.55;;;2.50;;
23230;SDS011;11784;49.818;8.632;2022-12-18T03:58:23;12.50;;;3.47;;
23230;SDS011;11784;49.818;8.632;2022-12-18T04:00:50;18.33;;;6.22;;
23230;SDS011;11784;49.818;8.632;2022-12-18T04:03:19;8.65;;;4.93;;
23230;SDS011;11784;49.818;8.632;2022-12-18T04:05:46;5.05;;;3.35;;
23230;SDS011;11784;49.818;8.632;2022-12-18T04:08:15;7.88;;;3.05;;
23230;SDS011;11784;49.818;8.632;2022-12-18T04:10:40;4.57;;;3.50;;
23230;SDS011;11784;49.818;8.632;2022-12-18T04:13:06;4.00;;;2.13;;
23230;SDS011;11784;49.818;8.632;2022-12-18T04:15:35;6.85;;;3.38;;
23230;SDS011;11784;49.818;8.632;2022-12-18T04:18:02;3.30;;;2.03;;
23230;SDS011;11784;49.818;8.632;2022-12-18T04:20:28;4.95;;;4.15;;
23230;SDS011;11784;49.818;8.632;2022-12-18T04:22:54;2.63;;;2.42;;
23230;SDS011;11784;49.818;8.632;2022-12-18T04:25:19;5.72;;;3.60;;
23230;SDS011;11784;49.818;8.632;2022-12-18T04:27:45;5.07;;;2.97;;
23230;SDS011;11784;49.818;8.632;2022-12-18T04:30:10;4.50;;;3.75;;
23230;SDS011;11784;49.818;8.632;2022-12-18T04:32:36;18.63;;;3.97;;
23230;SDS011;11784;49.818;8.632;2022-12-18T04:35:02;6.50;;;3.17;;
23230;SDS011;11784;49.818;8.632;2022-12-18T04:37:29;8.10;;;5.38;;
23230;SDS011;11784;49.818;8.632;2022-12-18T04:39:55;6.72;;;4.72;;
23230;SDS011;11784;49.818;8.632;2022-12-18T04:42:20;11.38;;;4.40;;
23230;SDS011;11784;49.818;8.632;2022-12-18T04:44:46;3.47;;;1.85;;
23230;SDS011;11784;49.818;8.632;2022-12-18T04:47:11;4.82;;;3.28;;
23230;SDS011;11784;49.818;8.632;2022-12-18T04:49:37;11.68;;;3.75;;
23230;SDS011;11784;49.818;8.632;2022-12-18T04:52:02;14.65;;;3.53;;
23230;SDS011;11784;49.818;8.632;2022-12-18T04:54:28;8.68;;;3.33;;
23230;SDS011;11784;49.818;8.632;2022-12-18T04:56:53;6.53;;;4.00;;
23230;SDS011;11784;49.818;8.632;2022-12-18T04:59:19;8.20;;;3.45;;
23230;SDS011;11784;49.818;8.632;2022-12-18T05:01:44;10.80;;;3.78;;
23230;SDS011;11784;49.818;8.632;2022-12-18T05:04:10;6.10;;;2.80;;
23230;SDS011;11784;49.818;8.632;2022-12-18T05:06:36;5.57;;;2.17;;
23230;SDS011;11784;49.818;8.632;2022-12-18T05:09:01;11.48;;;3.97;;
23230;SDS011;11784;49.818;8.632;2022-12-18T05:11:27;8.88;;;4.13;;
23230;SDS011;11784;49.818;8.632;2022-12-18T05:13:52;4.95;;;2.85;;
23230;SDS011;11784;49.818;8.632;2022-12-18T05:16:18;13.57;;;5.25;;
23230;SDS011;11784;49.818;8.632;2022-12-18T05:18:43;10.07;;;4.15;;
23230;SDS011;11784;49.818;8.632;2022-12-18T05:21:09;6.03;;;3.22;;
23230;SDS011;11784;49.818;8.632;2022-12-18T05:23:35;10.57;;;4.50;;
23230;SDS011;11784;49.818;8.632;2022-12-18T05:26:01;7.70;;;2.53;;
23230;SDS011;11784;49.818;8.632;2022-12-18T05:28:30;6.90;;;4.25;;
23230;SDS011;11784;49.818;8.632;2022-12-18T05:30:57;8.38;;;3.10;;
23230;SDS011;11784;49.818;8.632;2022-12-18T05:33:24;4.13;;;2.80;;
23230;SDS011;11784;49.818;8.632;2022-12-18T05:35:55;12.57;;;3.20;;
23230;SDS011;11784;49.818;8.632;2022-12-18T05:38:25;8.55;;;2.92;;
23230;SDS011;11784;49.818;8.632;2022-12-18T05:40:52;7.43;;;2.90;;
23230;SDS011;11784;49.818;8.632;2022-12-18T05:43:18;8.60;;;4.57;;
23230;SDS011;11784;49.818;8.632;2022-12-18T05:45:46;5.75;;;2.63;;
23230;SDS011;11784;49.818;8.632;2022-12-18T05:48:12;7.50;;;3.13;;
23230;SDS011;11784;49.818;8.632;2022-12-18T05:50:39;16.25;;;3.42;;
23230;SDS011;11784;49.818;8.632;2022-12-18T05:53:06;5.45;;;3.22;;
23230;SDS011;11784;49.818;8.632;2022-12-18T05:55:33;5.18;;;2.78;;
23230;SDS011;11784;49.818;8.632;2022-12-18T05:58:00;9.63;;;4.57;;
23230;SDS011;11784;49.818;8.632;2022-12-18T06:00:25;11.55;;;4.78;;
23230;SDS011;11784;49.818;8.632;2022-12-18T06:02:51;9.05;;;4.95;;
23230;SDS011;11784;49.818;8.632;2022-12-18T06:05:16;9.13;;;4.72;;
23230;SDS011;11784;49.818;8.632;2022-12-18T06:07:42;6.57;;;3.90;;
23230;SDS011;11784;49.818;8.632;2022-12-18T06:10:07;7.22;;;3.85;;
23230;SDS011;11784;49.818;8.632;2022-12-18T06:12:33;4.28;;;3.42;;
23230;SDS011;11784;49.818;8.632;2022-12-18T06:14:59;4.90;;;4.38;;
23230;SDS011;11784;49.818;8.632;2022-12-18T06:17:31;7.90;;;3.80;;
23230;SDS011;11784;49.818;8.632;2022-12-18T06:19:59;5.18;;;2.38;;
23230;SDS011;11784;49.818;8.632;2022-12-18T06:22:26;9.00;;;5.25;;
23230;SDS011;11784;49.818;8.632;2022-12-18T06:24:51;4.90;;;4.03;;
23230;SDS011;11784;49.818;8.632;2022-12-18T06:27:17;13.15;;;4.38;;
23230;SDS011;11784;49.818;8.632;2022-12-18T06:29:43;10.07;;;4.03;;
23230;SDS011;11784;49.818;8.632;2022-12-18T06:32:09;3.72;;;2.65;;
23230;SDS011;11784;49.818;8.632;2022-12-18T06:34:34;5.35;;;2.97;;
23230;SDS011;11784;49.818;8.632;2022-12-18T06:37:02;11.18;;;3.35;;
23230;SDS011;11784;49.818;8.632;2022-12-18T06:39:28;9.18;;;3.42;;
23230;SDS011;11784;49.818;8.632;2022-12-18T06:41:54;4.30;;;3.00;;
23230;SDS011;11784;49.818;8.632;2022-12-18T06:44:19;16.92;;;5.53;;
23230;SDS011;11784;49.818;8.632;2022-12-18T06:46:45;13.20;;;4.75;;
23230;SDS011;11784;49.818;8.632;2022-12-18T06:49:10;9.00;;;4.45;;
23230;SDS011;11784;49.818;8.632;2022-12-18T06:51:36;7.40;;;4.25;;
23230;SDS011;11784;49.818;8.632;2022-12-18T06:54:02;10.00;;;4.22;;
23230;SDS011;11784;49.818;8.632;2022-12-18T06:56:27;8.60;;;4.35;;
23230;SDS011;11784;49.818;8.632;2022-12-18T06:58:53;12.95;;;4.10;;
23230;SDS011;11784;49.818;8.632;2022-12-18T07:01:20;5.60;;;2.70;;
23230;SDS011;11784;49.818;8.632;2022-12-18T07:03:46;5.55;;;4.03;;
23230;SDS011;11784;49.818;8.632;2022-12-18T07:06:16;13.38;;;4.85;;
23230;SDS011;11784;49.818;8.632;2022-12-18T07:08:44;13.27;;;3.90;;
23230;SDS011;11784;49.818;8.632;2022-12-18T07:11:10;5.15;;;2.58;;
23230;SDS011;11784;49.818;8.632;2022-12-18T07:13:35;14.20;;;4.05;;
23230;SDS011;11784;49.818;8.632;2022-12-18T07:16:08;8.88;;;3.78;;
23230;SDS011;11784;49.818;8.632;2022-12-18T07:18:35;7.63;;;3.58;;
23230;SDS011;11784;49.818;8.632;2022-12-18T07:21:09;10.60;;;4.78;;
23230;SDS011;11784;49.818;8.632;2022-12-18T07:23:36;6.63;;;3.40;;
23230;SDS011;11784;49.818;8.632;2022-12-18T07:26:05;13.45;;;5.85;;
23230;SDS011;11784;49.818;8.632;2022-12-18T07:28:41;6.57;;;3.78;;
23230;SDS011;11784;49.818;8.632;2022-12-18T07:31:08;3.33;;;2.75;;
23230;SDS011;11784;49.818;8.632;2022-12-18T07:33:36;6.00;;;3.67;;
23230;SDS011;11784;49.818;8.632;2022-12-18T07:36:02;9.13;;;3.70;;
23230;SDS011;11784;49.818;8.632;2022-12-18T07:38:28;6.80;;;3.13;;
23230;SDS011;11784;49.818;8.632;2022-12-18T07:40:54;6.78;;;3.22;;
23230;SDS011;11784;49.818;8.632;2022-12-18T07:43:24;18.33;;;5.23;;
23230;SDS011;11784;49.818;8.632;2022-12-18T07:45:50;11.18;;;3.95;;
23230;SDS011;11784;49.818;8.632;2022-12-18T07:48:15;6.07;;;4.63;;
23230;SDS011;11784;49.818;8.632;2022-12-18T07:50:41;6.13;;;3.33;;
23230;SDS011;11784;49.818;8.632;2022-12-18T07:53:06;4.85;;;2.97;;
23230;SDS011;11784;49.818;8.632;2022-12-18T07:55:32;4.22;;;3.38;;
23230;SDS011;11784;49.818;8.632;2022-12-18T07:58:00;8.25;;;4.40;;
23230;SDS011;11784;49.818;8.632;2022-12-18T08:00:27;10.65;;;4.80;;
23230;SDS011;11784;49.818;8.632;2022-12-18T08:02:52;7.03;;;4.35;;
23230;SDS011;11784;49.818;8.632;2022-12-18T08:05:18;8.82;;;4.57;;
23230;SDS011;11784;49.818;8.632;2022-12-18T08:07:45;10.32;;;4.57;;
23230;SDS011;11784;49.818;8.632;2022-12-18T08:10:11;9.35;;;4.22;;
23230;SDS011;11784;49.818;8.632;2022-12-18T08:12:36;5.68;;;2.05;;
23230;SDS011;11784;49.818;8.632;2022-12-18T08:15:02;16.95;;;5.00;;
23230;SDS011;11784;49.818;8.632;2022-12-18T08:17:28;9.10;;;3.90;;
23230;SDS011;11784;49.818;8.632;2022-12-18T08:19:53;7.80;;;3.95;;
23230;SDS011;11784;49.818;8.632;2022-12-18T08:22:19;12.63;;;3.85;;
23230;SDS011;11784;49.818;8.632;2022-12-18T08:24:44;12.60;;;4.88;;
23230;SDS011;11784;49.818;8.632;2022-12-18T08:27:10;8.55;;;3.60;;
23230;SDS011;11784;49.818;8.632;2022-12-18T08:29:35;14.40;;;5.93;;
23230;SDS011;11784;49.818;8.632;2022-12-18T08:32:01;9.77;;;2.80;;
23230;SDS011;11784;49.818;8.632;2022-12-18T08:34:27;9.80;;;3.13;;
23230;SDS011;11784;49.818;8.632;2022-12-18T08:36:53;7.22;;;4.25;;
23230;SDS011;11784;49.818;8.632;2022-12-18T08:39:18;13.98;;;5.47;;
23230;SDS011;11784;49.818;8.632;2022-12-18T08:41:44;17.10;;;7.25;;
23230;SDS011;11784;49.818;8.632;2022-12-18T08:44:29;14.27;;;4.55;;
23230;SDS011;11784;49.818;8.632;2022-12-18T08:47:04;6.38;;;3.78;;
23230;SDS011;11784;49.818;8.632;2022-12-18T08:49:31;4.22;;;2.72;;
23230;SDS011;11784;49.818;8.632;2022-12-18T08:51:56;6.30;;;3.78;;
23230;SDS011;11784;49.818;8.632;2022-12-18T08:54:22;13.38;;;5.72;;
23230;SDS011;11784;49.818;8.632;2022-12-18T08:56:49;7.70;;;3.75;;
23230;SDS011;11784;49.818;8.632;2022-12-18T08:59:15;6.63;;;3.05;;
23230;SDS011;11784;49.818;8.632;2022-12-18T09:01:41;10.77;;;5.60;;
23230;SDS011;11784;49.818;8.632;2022-12-18T09:04:07;7.35;;;3.67;;
23230;SDS011;11784;49.818;8.632;2022-12-18T09:06:36;16.58;;;5.72;;
23230;SDS011;11784;49.818;8.632;2022-12-18T09:09:02;5.22;;;4.18;;
23230;SDS011;11784;49.818;8.632;2022-12-18T09:11:29;6.32;;;4.35;;
23230;SDS011;11784;49.818;8.632;2022-12-18T09:13:56;15.05;;;5.47;;
23230;SDS011;11784;49.818;8.632;2022-12-18T09:16:22;17.80;;;4.30;;
23230;SDS011;11784;49.818;8.632;2022-12-18T09:18:49;10.48;;;4.18;;
23230;SDS011;11784;49.818;8.632;2022-12-18T09:21:16;7.05;;;4.78;;
23230;SDS011;11784;49.818;8.632;2022-12-18T09:23:43;10.05;;;4.63;;
23230;SDS011;11784;49.818;8.632;2022-12-18T09:26:13;7.88;;;4.80;;
23230;SDS011;11784;49.818;8.632;2022-12-18T09:28:39;6.38;;;3.95;;
23230;SDS011;11784;49.818;8.632;2022-12-18T09:31:06;13.43;;;7.15;;
23230;SDS011;11784;49.818;8.632;2022-12-18T09:33:33;8.85;;;4.72;;
23230;SDS011;11784;49.818;8.632;2022-12-18T09:36:03;7.60;;;4.55;;
23230;SDS011;11784;49.818;8.632;2022-12-18T09:38:30;15.98;;;5.22;;
23230;SDS011;11784;49.818;8.632;2022-12-18T09:43:58;9.45;;;4.47;;
23230;SDS011;11784;49.818;8.632;2022-12-18T09:46:34;10.97;;;5.07;;
23230;SDS011;11784;49.818;8.632;2022-12-18T09:49:06;12.75;;;5.43;;
23230;SDS011;11784;49.818;8.632;2022-12-18T09:51:40;10.30;;;5.35;;
23230;SDS011;11784;49.818;8.632;2022-12-18T09:54:26;12.43;;;5.90;;
23230;SDS011;11784;49.818;8.632;2022-12-18T09:57:00;7.93;;;4.78;;
23230;SDS011;11784;49.818;8.632;2022-12-18T09:59:29;10.02;;;6.18;;
23230;SDS011;11784;49.818;8.632;2022-12-18T10:02:11;12.02;;;4.85;;
23230;SDS011;11784;49.818;8.632;2022-12-18T10:04:38;17.92;;;5.30;;
23230;SDS011;11784;49.818;8.632;2022-12-18T10:07:07;9.30;;;5.15;;
23230;SDS011;11784;49.818;8.632;2022-12-18T10:09:49;16.77;;;6.78;;
23230;SDS011;11784;49.818;8.632;2022-12-18T10:12:47;9.88;;;5.45;;
23230;SDS011;11784;49.818;8.632;2022-12-18T10:15:40;12.98;;;4.72;;
23230;SDS011;11784;49.818;8.632;2022-12-18T10:21:15;6.80;;;3.75;;
23230;SDS011;11784;49.818;8.632;2022-12-18T10:23:58;7.50;;;4.55;;
23230;SDS011;11784;49.818;8.632;2022-12-18T10:26:42;13.05;;;6.07;;
23230;SDS011;11784;49.818;8.632;2022-12-18T10:29:11;9.70;;;4.57;;
23230;SDS011;11784;49.818;8.632;2022-12-18T10:31:38;15.82;;;8.50;;
23230;SDS011;11784;49.818;8.632;2022-12-18T10:34:09;10.55;;;4.80;;
23230;SDS011;11784;49.818;8.632;2022-12-18T10:36:37;15.15;;;6.85;;
23230;SDS011;11784;49.818;8.632;2022-12-18T10:39:17;11.82;;;6.28;;
23230;SDS011;11784;49.818;8.632;2022-12-18T10:41:48;15.30;;;7.82;;
23230;SDS011;11784;49.818;8.632;2022-12-18T10:44:18;14.65;;;6.07;;
23230;SDS011;11784;49.818;8.632;2022-12-18T10:46:46;9.20;;;4.90;;
23230;SDS011;11784;49.818;8.632;2022-12-18T10:49:30;9.20;;;4.78;;
23230;SDS011;11784;49.818;8.632;2022-12-18T10:52:11;14.77;;;5.43;;
23230;SDS011;11784;49.818;8.632;2022-12-18T10:54:46;15.75;;;6.57;;
23230;SDS011;11784;49.818;8.632;2022-12-18T10:59:55;10.38;;;3.85;;
23230;SDS011;11784;49.818;8.632;2022-12-18T11:02:27;15.50;;;6.35;;
23230;SDS011;11784;49.818;8.632;2022-12-18T11:04:58;12.93;;;5.72;;
23230;SDS011;11784;49.818;8.632;2022-12-18T11:07:24;15.05;;;6.95;;
23230;SDS011;11784;49.818;8.632;2022-12-18T11:10:00;12.90;;;6.93;;
23230;SDS011;11784;49.818;8.632;2022-12-18T11:12:26;15.05;;;5.65;;
23230;SDS011;11784;49.818;8.632;2022-12-18T11:14:53;11.15;;;5.40;;
23230;SDS011;11784;49.818;8.632;2022-12-18T11:17:28;15.57;;;6.75;;
23230;SDS011;11784;49.818;8.632;2022-12-18T11:19:59;10.63;;;5.40;;
23230;SDS011;11784;49.818;8.632;2022-12-18T11:22:28;15.90;;;6.10;;
23230;SDS011;11784;49.818;8.632;2022-12-18T11:24:59;17.42;;;5.95;;
23230;SDS011;11784;49.818;8.632;2022-12-18T11:27:47;11.35;;;5.13;;
23230;SDS011;11784;49.818;8.632;2022-12-18T11:32:53;10.38;;;5.75;;
23230;SDS011;11784;49.818;8.632;2022-12-18T11:41:14;9.48;;;4.38;;
23230;SDS011;11784;49.818;8.632;2022-12-18T11:43:55;16.95;;;6.55;;
23230;SDS011;11784;49.818;8.632;2022-12-18T11:46:26;13.07;;;6.10;;
23230;SDS011;11784;49.818;8.632;2022-12-18T11:49:00;14.10;;;6.30;;
23230;SDS011;11784;49.818;8.632;2022-12-18T11:51:38;9.70;;;5.43;;
23230;SDS011;11784;49.818;8.632;2022-12-18T11:54:14;18.60;;;8.60;;
23230;SDS011;11784;49.818;8.632;2022-12-18T11:56:46;10.82;;;5.97;;
23230;SDS011;11784;49.818;8.632;2022-12-18T11:59:45;14.98;;;6.93;;
23230;SDS011;11784;49.818;8.632;2022-12-18T12:02:20;16.15;;;5.47;;
23230;SDS011;11784;49.818;8.632;2022-12-18T12:05:00;17.50;;;7.93;;
23230;SDS011;11784;49.818;8.632;2022-12-18T12:07:37;15.27;;;6.07;;
23230;SDS011;11784;49.818;8.632;2022-12-18T12:16:03;18.55;;;8.38;;
23230;SDS011;11784;49.818;8.632;2022-12-18T12:21:35;13.85;;;6.07;;
23230;SDS011;11784;49.818;8.632;2022-12-18T12:26:58;13.98;;;6.90;;
23230;SDS011;11784;49.818;8.632;2022-12-18T12:29:31;18.48;;;7.40;;
23230;SDS011;11784;49.818;8.632;2022-12-18T12:32:09;12.70;;;6.05;;
23230;SDS011;11784;49.818;8.632;2022-12-18T12:40:17;12.70;;;7.45;;
23230;SDS011;11784;49.818;8.632;2022-12-18T12:42:45;15.52;;;7.75;;
23230;SDS011;11784;49.818;8.632;2022-12-18T12:48:17;11.88;;;6.38;;
23230;SDS011;11784;49.818;8.632;2022-12-18T12:51:00;16.55;;;5.78;;
23230;SDS011;11784;49.818;8.632;2022-12-18T12:53:30;11.02;;;5.80;;
23230;SDS011;11784;49.818;8.632;2022-12-18T12:55:59;10.35;;;6.13;;
23230;SDS011;11784;49.818;8.632;2022-12-18T13:01:02;15.75;;;6.95;;
23230;SDS011;11784;49.818;8.632;2022-12-18T13:03:35;11.68;;;5.38;;
23230;SDS011;11784;49.818;8.632;2022-12-18T13:06:08;14.40;;;5.30;;
23230;SDS011;11784;49.818;8.632;2022-12-18T13:08:51;14.52;;;6.78;;
23230;SDS011;11784;49.818;8.632;2022-12-18T13:14:24;16.45;;;6.38;;
23230;SDS011;11784;49.818;8.632;2022-12-18T13:17:30;17.20;;;7.30;;
23230;SDS011;11784;49.818;8.632;2022-12-18T13:20:04;15.23;;;6.53;;
23230;SDS011;11784;49.818;8.632;2022-12-18T13:22:48;17.50;;;7.15;;
23230;SDS011;11784;49.818;8.632;2022-12-18T13:25:31;18.85;;;6.38;;
23230;SDS011;11784;49.818;8.632;2022-12-18T13:40:56;16.08;;;5.93;;
23230;SDS011;11784;49.818;8.632;2022-12-18T13:43:23;15.77;;;7.13;;
23230;SDS011;11784;49.818;8.632;2022-12-18T13:49:22;12.38;;;7.25;;
23230;SDS011;11784;49.818;8.632;2022-12-18T13:52:24;12.15;;;5.30;;
23230;SDS011;11784;49.818;8.632;2022-12-18T13:54:53;12.95;;;6.75;;
23230;SDS011;11784;49.818;8.632;2022-12-18T13:57:27;17.67;;;6.78;;
23230;SDS011;11784;49.818;8.632;2022-12-18T13:59:55;9.60;;;4.82;;
23230;SDS011;11784;49.818;8.632;2022-12-18T14:02:22;12.00;;;5.88;;
23230;SDS011;11784;49.818;8.632;2022-12-18T14:04:49;12.57;;;5.80;;
23230;SDS011;11784;49.818;8.632;2022-12-18T14:07:26;15.13;;;5.65;;
23230;SDS011;11784;49.818;8.632;2022-12-18T14:17:42;12.18;;;4.18;;
23230;SDS011;11784;49.818;8.632;2022-12-18T14:20:12;13.32;;;4.40;;
23230;SDS011;11784;49.818;8.632;2022-12-18T14:22:40;16.73;;;6.75;;
23230;SDS011;11784;49.818;8.632;2022-12-18T14:27:42;10.60;;;4.97;;
23230;SDS011;11784;49.818;8.632;2022-12-18T14:30:30;12.90;;;5.07;;
23230;SDS011;11784;49.818;8.632;2022-12-18T14:35:36;14.18;;;4.35;;
23230;SDS011;11784;49.818;8.632;2022-12-18T14:38:19;12.32;;;5.97;;
23230;SDS011;11784;49.818;8.632;2022-12-18T14:40:47;9.20;;;4.80;;
23230;SDS011;11784;49.818;8.632;2022-12-18T14:43:16;9.27;;;4.95;;
23230;SDS011;11784;49.818;8.632;2022-12-18T14:45:42;17.67;;;6.25;;
23230;SDS011;11784;49.818;8.632;2022-12-18T14:50:40;19.80;;;7.25;;
23230;SDS011;11784;49.818;8.632;2022-12-18T14:53:15;14.23;;;7.45;;
23230;SDS011;11784;49.818;8.632;2022-12-18T14:55:53;12.02;;;6.57;;
23230;SDS011;11784;49.818;8.632;2022-12-18T14:58:18;12.43;;;5.95;;
23230;SDS011;11784;49.818;8.632;2022-12-18T15:00:44;20.35;;;6.43;;
23230;SDS011;11784;49.818;8.632;2022-12-18T15:03:10;16.75;;;5.53;;
23230;SDS011;11784;49.818;8.632;2022-12-18T15:05:38;12.07;;;6.22;;
23230;SDS011;11784;49.818;8.632;2022-12-18T15:08:25;15.27;;;6.57;;
23230;SDS011;11784;49.818;8.632;2022-12-18T15:10:53;18.15;;;6.00;;
23230;SDS011;11784;49.818;8.632;2022-12-18T15:13:22;14.98;;;6.95;;
23230;SDS011;11784;49.818;8.632;2022-12-18T15:15:50;8.52;;;6.20;;
23230;SDS011;11784;49.818;8.632;2022-12-18T15:18:17;19.67;;;7.65;;
23230;SDS011;11784;49.818;8.632;2022-12-18T15:25:47;10.20;;;5.38;;
23230;SDS011;11784;49.818;8.632;2022-12-18T15:28:26;9.98;;;6.43;;
23230;SDS011;11784;49.818;8.632;2022-12-18T15:31:17;10.47;;;5.27;;
23230;SDS011;11784;49.818;8.632;2022-12-18T15:36:17;8.52;;;5.47;;
23230;SDS011;11784;49.818;8.632;2022-12-18T15:38:46;12.80;;;5.50;;
23230;SDS011;11784;49.818;8.632;2022-12-18T15:41:16;11.90;;;5.45;;
23230;SDS011;11784;49.818;8.632;2022-12-18T15:43:43;13.63;;;4.65;;
23230;SDS011;11784;49.818;8.632;2022-12-18T15:46:11;11.35;;;6.13;;
23230;SDS011;11784;49.818;8.632;2022-12-18T15:51:11;12.23;;;6.55;;
23230;SDS011;11784;49.818;8.632;2022-12-18T15:53:41;14.45;;;6.40;;
23230;SDS011;11784;49.818;8.632;2022-12-18T15:56:09;9.73;;;6.85;;
23230;SDS011;11784;49.818;8.632;2022-12-18T15:58:54;11.82;;;6.25;;
23230;SDS011;11784;49.818;8.632;2022-12-18T16:01:20;9.80;;;5.43;;
23230;SDS011;11784;49.818;8.632;2022-12-18T16:06:17;17.77;;;7.63;;
23230;SDS011;11784;49.818;8.632;2022-12-18T16:08:42;14.27;;;6.43;;
23230;SDS011;11784;49.818;8.632;2022-12-18T16:11:13;17.80;;;6.95;;
23230;SDS011;11784;49.818;8.632;2022-12-18T16:13:45;18.58;;;7.85;;
23230;SDS011;11784;49.818;8.632;2022-12-18T16:16:10;14.43;;;6.10;;
23230;SDS011;11784;49.818;8.632;2022-12-18T16:18:36;16.05;;;6.85;;
23230;SDS011;11784;49.818;8.632;2022-12-18T16:21:01;10.60;;;6.10;;
23230;SDS011;11784;49.818;8.632;2022-12-18T16:23:27;16.23;;;7.00;;
23230;SDS011;11784;49.818;8.632;2022-12-18T16:25:53;15.10;;;7.97;;
23230;SDS011;11784;49.818;8.632;2022-12-18T16:28:19;11.85;;;6.10;;
23230;SDS011;11784;49.818;8.632;2022-12-18T16:30:44;14.40;;;6.60;;
23230;SDS011;11784;49.818;8.632;2022-12-18T16:33:10;13.13;;;6.43;;
23230;SDS011;11784;49.818;8.632;2022-12-18T16:35:36;12.40;;;6.22;;
23230;SDS011;11784;49.818;8.632;2022-12-18T16:38:02;18.67;;;5.68;;
23230;SDS011;11784;49.818;8.632;2022-12-18T16:40:27;14.80;;;6.90;;
23230;SDS011;11784;49.818;8.632;2022-12-18T16:42:56;11.43;;;5.50;;
23230;SDS011;11784;49.818;8.632;2022-12-18T16:45:21;14.40;;;7.75;;
23230;SDS011;11784;49.818;8.632;2022-12-18T16:47:47;12.98;;;6.10;;
23230;SDS011;11784;49.818;8.632;2022-12-18T16:50:12;13.95;;;6.93;;